Pinar del Rio, Cuba
Current Conditions -  °F | °C
As of 9:55 AM on Thursday 30 Oct 2014 (Local Time) from MUHA Reporting Station
Few Clouds Few Clouds  
Wind Chill: 79°   Ceiling: Unl
Heat Index: 81°   Visibility: 6mi
Dew Point: 66°   Wind: 6mph
Humidity: 65%   Direction: 100°E
Pressure: 30"   Gusts: NA
Location:  22.41°N, 83.7°W
Report Text: MUHA 301355Z 10005KT 060V130 9000 FEW030 26/19 Q1016
Loading
Personal Weather Stations






























Interactive Weather Map
Tropical Storm Tracking
New forecast layout! Learn more

10-Day Weather Forecast

Advertisements
Track Severe Weather on mobile